createdAt,value
2023-05-06T00:00:29.596Z,222.63
2023-05-06T00:01:29.652Z,221.20
2023-05-06T00:02:29.790Z,230.22
2023-05-06T00:03:29.976Z,228.63
2023-05-06T00:04:29.873Z,230.53
2023-05-06T00:05:29.911Z,221.37
2023-05-06T00:06:29.954Z,220.46
2023-05-06T00:07:30.039Z,206.93
2023-05-06T00:08:30.064Z,214.97
2023-05-06T00:09:30.139Z,224.00
2023-05-06T00:10:30.177Z,230.31
2023-05-06T00:11:30.238Z,225.54
2023-05-06T00:12:30.289Z,224.15
2023-05-06T00:13:30.373Z,229.80
2023-05-06T00:14:30.531Z,229.84
2023-05-06T00:15:32.233Z,232.66
2023-05-06T00:16:30.549Z,232.48
2023-05-06T00:17:30.629Z,231.85
2023-05-06T00:18:30.628Z,236.62
2023-05-06T00:19:30.690Z,244.44
2023-05-06T00:20:30.760Z,234.12
2023-05-06T00:21:30.831Z,233.41
2023-05-06T00:22:30.879Z,231.04
2023-05-06T00:23:30.942Z,232.99
2023-05-06T00:24:30.982Z,233.39
2023-05-06T00:25:31.045Z,223.86
2023-05-06T00:26:31.104Z,222.09
2023-05-06T00:27:31.177Z,226.89
2023-05-06T00:28:31.205Z,232.01
2023-05-06T00:29:31.272Z,231.97
2023-05-06T00:30:31.344Z,225.86
2023-05-06T00:31:31.407Z,230.24
2023-05-06T00:32:31.403Z,224.09
2023-05-06T00:33:31.440Z,224.60
2023-05-06T00:34:31.450Z,231.64
2023-05-06T00:35:31.446Z,229.02
2023-05-06T00:36:31.510Z,235.35
2023-05-06T00:37:31.573Z,233.85
2023-05-06T00:38:31.595Z,229.76
2023-05-06T00:39:31.603Z,226.12
2023-05-06T00:40:31.624Z,227.58
2023-05-06T00:41:31.645Z,232.44
2023-05-06T00:42:31.658Z,235.04
2023-05-06T00:43:31.702Z,236.41
2023-05-06T00:44:31.762Z,231.40
2023-05-06T00:45:31.792Z,233.63
2023-05-06T00:46:31.756Z,233.86
2023-05-06T00:47:31.794Z,235.38
2023-05-06T00:48:31.795Z,235.47
2023-05-06T00:49:31.824Z,230.20
2023-05-06T00:50:31.824Z,233.97
2023-05-06T00:51:31.866Z,233.28
2023-05-06T00:52:31.929Z,229.23
2023-05-06T00:53:31.995Z,228.46
2023-05-06T00:54:32.058Z,232.81
2023-05-06T00:55:32.113Z,231.29
2023-05-06T00:56:32.174Z,229.27
2023-05-06T00:57:32.186Z,229.13
2023-05-06T00:58:32.247Z,227.07
2023-05-06T00:59:32.240Z,227.67
2023-05-06T01:00:32.273Z,215.35
2023-05-06T01:01:32.359Z,218.34
2023-05-06T01:02:43.467Z,222.53
2023-05-06T01:03:33.382Z,222.83
2023-05-06T01:04:32.315Z,223.20
2023-05-06T01:05:32.282Z,224.69
2023-05-06T01:06:32.258Z,227.11
2023-05-06T01:07:32.255Z,221.60
2023-05-06T01:08:32.261Z,216.43
2023-05-06T01:09:32.242Z,222.41
2023-05-06T01:10:32.244Z,223.98
2023-05-06T01:11:32.248Z,218.67
2023-05-06T01:12:32.297Z,219.56
2023-05-06T01:13:32.271Z,226.37
2023-05-06T01:14:32.350Z,228.90
2023-05-06T01:15:32.318Z,233.92
2023-05-06T01:16:32.402Z,231.35
2023-05-06T01:17:32.411Z,228.19
2023-05-06T01:18:32.546Z,235.07
2023-05-06T01:19:32.464Z,230.59
2023-05-06T01:20:32.497Z,224.83
2023-05-06T01:21:32.499Z,227.78
2023-05-06T01:22:32.514Z,224.44
2023-05-06T01:23:32.593Z,217.90
2023-05-06T01:24:32.578Z,222.06
2023-05-06T01:25:32.614Z,214.81
2023-05-06T01:26:32.601Z,221.48
2023-05-06T01:27:32.604Z,225.33
2023-05-06T01:28:32.661Z,226.06
2023-05-06T01:29:32.641Z,222.22
2023-05-06T01:30:32.677Z,210.73
2023-05-06T01:31:32.833Z,208.05
2023-05-06T01:32:32.764Z,209.71
2023-05-06T01:33:32.725Z,211.02
2023-05-06T01:34:32.877Z,211.89
2023-05-06T01:35:32.804Z,213.08
2023-05-06T01:36:32.812Z,210.59
2023-05-06T01:37:32.822Z,208.51
2023-05-06T01:38:32.828Z,205.70
2023-05-06T01:39:32.853Z,197.96
2023-05-06T01:40:32.838Z,204.06
2023-05-06T01:41:32.849Z,204.91
2023-05-06T01:42:32.866Z,204.80
2023-05-06T01:43:32.901Z,204.01
2023-05-06T01:44:32.880Z,205.77
2023-05-06T01:45:32.886Z,204.79
2023-05-06T01:46:32.948Z,203.00
2023-05-06T01:47:32.935Z,196.58
2023-05-06T01:48:32.913Z,197.32
2023-05-06T01:49:32.912Z,201.96
2023-05-06T01:50:33.048Z,201.77
2023-05-06T01:51:32.974Z,199.21
2023-05-06T01:52:33.003Z,188.51
2023-05-06T01:53:32.982Z,191.06
2023-05-06T01:54:32.993Z,192.86
2023-05-06T01:55:33.002Z,197.43
2023-05-06T01:56:32.983Z,196.94
2023-05-06T01:57:32.992Z,197.30
2023-05-06T01:58:33.003Z,197.56
2023-05-06T01:59:32.988Z,193.31
2023-05-06T02:00:33.024Z,184.51
2023-05-06T02:01:33.059Z,177.72
2023-05-06T02:02:33.155Z,181.07
2023-05-06T02:03:33.127Z,181.61
2023-05-06T02:04:32.991Z,184.82
2023-05-06T02:05:33.013Z,188.24
2023-05-06T02:06:33.085Z,188.82
2023-05-06T02:07:33.010Z,184.20
2023-05-06T02:08:33.006Z,188.55
2023-05-06T02:09:32.986Z,187.48
2023-05-06T02:10:33.031Z,186.90
2023-05-06T02:11:33.036Z,183.08
2023-05-06T02:12:33.068Z,180.18
2023-05-06T02:13:33.065Z,182.55
2023-05-06T02:14:33.094Z,176.76
2023-05-06T02:15:33.105Z,175.90
2023-05-06T02:16:33.238Z,177.16
2023-05-06T02:17:33.224Z,175.43
2023-05-06T02:18:33.178Z,179.78
2023-05-06T02:19:33.181Z,178.75
2023-05-06T02:20:33.204Z,170.74
2023-05-06T02:21:33.220Z,173.47
2023-05-06T02:22:33.316Z,174.48
2023-05-06T02:23:33.242Z,174.02
2023-05-06T02:24:33.246Z,175.02
2023-05-06T02:25:33.266Z,181.21
2023-05-06T02:26:33.274Z,180.82
2023-05-06T02:27:33.297Z,182.38
2023-05-06T02:28:33.274Z,181.67
2023-05-06T02:29:33.296Z,179.72
2023-05-06T02:30:33.282Z,182.58
2023-05-06T02:31:33.353Z,182.06
2023-05-06T02:32:33.344Z,182.93
2023-05-06T02:33:33.361Z,175.34
2023-05-06T02:34:33.413Z,175.72
2023-05-06T02:35:33.404Z,183.34
2023-05-06T02:36:33.431Z,181.01
2023-05-06T02:37:33.457Z,176.31
2023-05-06T02:38:33.568Z,179.31
2023-05-06T02:39:33.481Z,178.45
2023-05-06T02:40:33.499Z,181.33
2023-05-06T02:41:33.521Z,173.51
2023-05-06T02:42:33.508Z,175.69
2023-05-06T02:43:33.509Z,177.69
2023-05-06T02:44:33.481Z,180.51
2023-05-06T02:45:33.508Z,185.93
2023-05-06T02:46:33.498Z,185.18
2023-05-06T02:47:33.533Z,181.02
2023-05-06T02:48:33.517Z,180.94
2023-05-06T02:49:33.514Z,186.91
2023-05-06T02:50:33.498Z,179.24
2023-05-06T02:51:33.500Z,173.42
2023-05-06T02:52:33.494Z,178.26
2023-05-06T02:53:33.498Z,175.44
2023-05-06T02:54:33.501Z,175.99
2023-05-06T02:55:33.503Z,180.03
2023-05-06T02:56:33.506Z,183.22
2023-05-06T02:57:33.550Z,178.70
2023-05-06T02:58:33.564Z,178.38
2023-05-06T02:59:33.618Z,175.92
2023-05-06T03:00:33.671Z,179.92
2023-05-06T03:01:33.720Z,181.82
2023-05-06T03:02:33.763Z,181.43
2023-05-06T03:03:33.726Z,181.07
2023-05-06T03:04:33.827Z,183.29
2023-05-06T03:05:33.774Z,182.15
2023-05-06T03:06:33.763Z,184.24
2023-05-06T03:07:33.761Z,189.57
2023-05-06T03:08:33.782Z,184.13
2023-05-06T03:09:33.822Z,189.53
2023-05-06T03:10:33.865Z,186.98
2023-05-06T03:11:33.793Z,184.04
2023-05-06T03:12:33.821Z,185.73
2023-05-06T03:13:33.793Z,188.84
2023-05-06T03:14:33.787Z,186.08
2023-05-06T03:15:33.778Z,190.95
2023-05-06T03:16:33.800Z,186.36
2023-05-06T03:17:33.805Z,190.06
2023-05-06T03:18:33.788Z,185.65
2023-05-06T03:19:33.918Z,186.38
2023-05-06T03:20:33.799Z,186.04
2023-05-06T03:21:33.842Z,185.39
2023-05-06T03:22:33.863Z,182.17
2023-05-06T03:23:33.885Z,183.98
2023-05-06T03:24:33.923Z,190.39
2023-05-06T03:25:33.939Z,190.10
2023-05-06T03:26:34.096Z,188.52
2023-05-06T03:27:33.992Z,183.33
2023-05-06T03:28:34.007Z,179.55
2023-05-06T03:29:33.992Z,177.49
2023-05-06T03:30:34.006Z,184.15
2023-05-06T03:31:34.073Z,185.66
2023-05-06T03:32:34.082Z,185.26
2023-05-06T03:33:34.029Z,187.79
2023-05-06T03:34:34.027Z,185.56
2023-05-06T03:35:34.049Z,184.82
2023-05-06T03:36:34.030Z,185.05
2023-05-06T03:37:34.033Z,180.87
2023-05-06T03:38:34.053Z,181.31
2023-05-06T03:39:34.045Z,184.46
2023-05-06T03:40:34.042Z,185.41
2023-05-06T03:41:34.051Z,186.38
2023-05-06T03:42:34.122Z,183.54
2023-05-06T03:43:34.090Z,182.88
2023-05-06T03:44:34.108Z,184.32
2023-05-06T03:45:34.123Z,188.88
2023-05-06T03:46:34.152Z,188.68
2023-05-06T03:47:34.179Z,193.67
2023-05-06T03:48:34.137Z,193.27
2023-05-06T03:49:34.142Z,190.24
2023-05-06T03:50:34.172Z,189.46
2023-05-06T03:51:34.158Z,190.68
2023-05-06T03:52:34.162Z,194.73
2023-05-06T03:53:34.176Z,189.15
2023-05-06T03:54:34.177Z,186.47
2023-05-06T03:55:34.185Z,189.05
2023-05-06T03:56:34.206Z,191.63
2023-05-06T03:57:34.221Z,192.67
2023-05-06T03:58:34.341Z,193.37
2023-05-06T03:59:34.218Z,193.15
2023-05-06T04:00:34.251Z,189.38
2023-05-06T04:01:34.275Z,187.29
2023-05-06T04:02:34.562Z,189.18
2023-05-06T04:03:34.414Z,187.90
2023-05-06T04:04:34.277Z,192.84
2023-05-06T04:05:34.279Z,196.74
2023-05-06T04:06:34.268Z,195.00
2023-05-06T04:07:34.266Z,191.83
2023-05-06T04:08:34.303Z,194.00
2023-05-06T04:09:34.300Z,194.58
2023-05-06T04:10:34.314Z,190.86
2023-05-06T04:11:34.318Z,187.72
2023-05-06T04:12:34.375Z,192.11
2023-05-06T04:13:34.383Z,191.74
2023-05-06T04:14:34.392Z,196.32
2023-05-06T04:15:34.325Z,194.51
2023-05-06T04:16:34.376Z,192.17
2023-05-06T04:17:34.460Z,191.98
2023-05-06T04:18:34.393Z,194.23
2023-05-06T04:19:34.330Z,190.19
2023-05-06T04:20:34.349Z,195.84
2023-05-06T04:21:34.358Z,190.49
2023-05-06T04:22:34.377Z,194.12
2023-05-06T04:23:34.380Z,195.50
2023-05-06T04:24:34.360Z,198.21
2023-05-06T04:25:34.381Z,202.86
2023-05-06T04:26:34.389Z,199.00
2023-05-06T04:27:34.400Z,195.58
2023-05-06T04:28:34.403Z,196.86
2023-05-06T04:29:34.422Z,196.78
2023-05-06T04:30:34.475Z,201.23
2023-05-06T04:31:34.490Z,203.50
2023-05-06T04:32:34.555Z,203.26
2023-05-06T04:33:34.455Z,200.77
2023-05-06T04:34:34.459Z,203.95
2023-05-06T04:35:34.473Z,196.78
2023-05-06T04:36:34.463Z,200.27
2023-05-06T04:37:34.471Z,198.12
2023-05-06T04:38:34.485Z,199.55
2023-05-06T04:39:34.509Z,200.84
2023-05-06T04:40:34.514Z,200.62
2023-05-06T04:41:34.537Z,200.73
2023-05-06T04:42:34.537Z,200.73
2023-05-06T04:43:34.551Z,197.88
2023-05-06T04:44:34.538Z,198.72
2023-05-06T04:45:34.628Z,197.51
2023-05-06T04:46:34.631Z,201.61
2023-05-06T04:47:34.601Z,202.50
2023-05-06T04:48:34.596Z,198.49
2023-05-06T04:49:34.600Z,199.21
2023-05-06T04:50:34.615Z,201.75
2023-05-06T04:51:34.661Z,199.88
2023-05-06T04:52:34.693Z,198.40
2023-05-06T04:53:34.746Z,196.37
2023-05-06T04:54:34.764Z,195.68
2023-05-06T04:55:34.800Z,198.50
2023-05-06T04:56:34.849Z,197.68
2023-05-06T04:57:34.887Z,197.40
2023-05-06T04:58:34.925Z,201.49
2023-05-06T04:59:34.947Z,197.32
2023-05-06T05:00:34.984Z,199.31
2023-05-06T05:01:35.072Z,193.06
2023-05-06T05:02:35.205Z,194.17
2023-05-06T05:03:35.173Z,191.02
2023-05-06T05:04:35.154Z,190.50
2023-05-06T05:05:35.197Z,191.77
2023-05-06T05:06:35.222Z,190.62
2023-05-06T05:07:35.274Z,190.15
2023-05-06T05:08:35.309Z,193.21
2023-05-06T05:09:35.352Z,190.14
2023-05-06T05:10:35.384Z,189.68
2023-05-06T05:11:35.362Z,182.68
2023-05-06T05:12:35.402Z,184.10
2023-05-06T05:13:35.388Z,184.34
2023-05-06T05:14:35.398Z,187.00
2023-05-06T05:15:35.423Z,178.38
2023-05-06T05:16:35.435Z,173.80
2023-05-06T05:17:35.560Z,166.76
2023-05-06T05:18:35.557Z,159.95
2023-05-06T05:19:35.542Z,162.81
2023-05-06T05:20:35.548Z,164.79
2023-05-06T05:21:35.586Z,170.10
2023-05-06T05:22:35.549Z,164.81
2023-05-06T05:23:35.588Z,157.52
2023-05-06T05:24:35.615Z,168.04
2023-05-06T05:25:35.688Z,165.82
2023-05-06T05:26:35.653Z,171.34
2023-05-06T05:27:35.681Z,167.89
2023-05-06T05:28:35.716Z,164.07
2023-05-06T05:29:35.746Z,167.09
2023-05-06T05:30:35.774Z,171.24
2023-05-06T05:31:35.812Z,156.38
2023-05-06T05:32:35.846Z,157.94
2023-05-06T05:33:35.841Z,161.13
2023-05-06T05:34:35.901Z,164.15
2023-05-06T05:35:35.860Z,160.19
2023-05-06T05:36:35.908Z,158.84
2023-05-06T05:37:35.941Z,152.62
2023-05-06T05:38:35.958Z,148.29
2023-05-06T05:39:35.998Z,146.55
2023-05-06T05:40:36.051Z,149.46
2023-05-06T05:41:36.052Z,159.49
2023-05-06T05:42:36.093Z,167.28
2023-05-06T05:43:36.181Z,175.13
2023-05-06T05:44:36.188Z,189.28
2023-05-06T05:45:36.204Z,196.12
2023-05-06T05:46:36.338Z,200.52
2023-05-06T05:47:36.270Z,197.26
2023-05-06T05:48:36.273Z,200.41
2023-05-06T05:49:36.312Z,203.88
2023-05-06T05:50:36.354Z,200.06
2023-05-06T05:51:36.371Z,200.27
2023-05-06T05:52:36.376Z,200.47
2023-05-06T05:53:36.397Z,199.45
2023-05-06T05:54:36.412Z,198.43
2023-05-06T05:55:36.453Z,196.94
2023-05-06T05:56:36.458Z,200.21
2023-05-06T05:57:36.461Z,199.44
2023-05-06T05:58:36.477Z,198.86
2023-05-06T05:59:36.509Z,201.70
2023-05-06T06:00:36.523Z,204.37
2023-05-06T06:01:36.525Z,207.44
2023-05-06T06:02:36.638Z,205.11
2023-05-06T06:03:36.681Z,203.44
2023-05-06T06:04:36.606Z,207.11
2023-05-06T06:05:36.600Z,203.16
2023-05-06T06:06:36.724Z,205.03
2023-05-06T06:07:36.618Z,208.23
2023-05-06T06:08:36.663Z,209.45
2023-05-06T06:09:36.641Z,207.48
2023-05-06T06:10:36.650Z,210.74
2023-05-06T06:11:36.647Z,207.63
2023-05-06T06:12:36.662Z,206.21
2023-05-06T06:13:36.630Z,208.13
2023-05-06T06:14:36.678Z,210.32
2023-05-06T06:15:36.703Z,206.27
2023-05-06T06:16:36.770Z,206.15
2023-05-06T06:17:36.787Z,208.39
2023-05-06T06:18:36.742Z,206.87
2023-05-06T06:19:36.753Z,207.43
2023-05-06T06:20:36.788Z,210.97
2023-05-06T06:21:36.813Z,205.39
2023-05-06T06:22:36.877Z,204.52
2023-05-06T06:23:36.834Z,200.84
2023-05-06T06:24:36.853Z,205.82
2023-05-06T06:25:36.875Z,204.37
2023-05-06T06:26:36.920Z,207.72
2023-05-06T06:27:36.915Z,208.07
2023-05-06T06:28:36.914Z,203.35
2023-05-06T06:29:36.959Z,209.89
2023-05-06T06:30:36.964Z,201.64
2023-05-06T06:31:39.703Z,196.48
2023-05-06T06:32:36.989Z,204.68
2023-05-06T06:33:36.958Z,205.09
2023-05-06T06:34:36.965Z,203.90
2023-05-06T06:35:36.948Z,196.49
2023-05-06T06:36:36.943Z,194.47
2023-05-06T06:37:36.934Z,194.44
2023-05-06T06:38:36.979Z,195.31
2023-05-06T06:39:36.923Z,195.23
2023-05-06T06:40:36.910Z,195.50
2023-05-06T06:41:36.906Z,189.04
2023-05-06T06:42:36.898Z,188.64
2023-05-06T06:43:36.882Z,188.66
2023-05-06T06:44:36.889Z,188.91
2023-05-06T06:45:36.916Z,191.34
2023-05-06T06:46:36.897Z,187.80
2023-05-06T06:47:36.890Z,183.20
2023-05-06T06:48:36.860Z,181.16
2023-05-06T06:49:36.854Z,182.19
2023-05-06T06:50:36.836Z,179.66
2023-05-06T06:51:36.842Z,175.76
2023-05-06T06:52:36.849Z,172.06
2023-05-06T06:53:36.827Z,180.26
2023-05-06T06:54:36.921Z,185.65
2023-05-06T06:55:36.820Z,181.84
2023-05-06T06:56:36.793Z,182.60
2023-05-06T06:57:36.808Z,178.09
2023-05-06T06:58:36.801Z,187.75
2023-05-06T06:59:36.772Z,191.15
2023-05-06T07:00:36.780Z,193.39
2023-05-06T07:01:36.891Z,194.94
2023-05-06T07:02:36.788Z,190.83
2023-05-06T07:03:36.769Z,191.40
2023-05-06T07:04:36.784Z,186.79
2023-05-06T07:05:36.760Z,178.62
2023-05-06T07:06:36.752Z,174.23
2023-05-06T07:07:36.759Z,170.65
2023-05-06T07:08:36.738Z,169.61
2023-05-06T07:09:38.322Z,167.27
2023-05-06T07:10:36.776Z,179.15
2023-05-06T07:11:36.710Z,182.53
2023-05-06T07:12:36.705Z,174.06
2023-05-06T07:13:36.695Z,162.23
2023-05-06T07:14:36.675Z,145.34
2023-05-06T07:15:36.664Z,144.49
2023-05-06T07:16:36.711Z,125.64
2023-05-06T07:17:36.688Z,103.85
2023-05-06T07:18:36.662Z,94.57
2023-05-06T07:19:36.650Z,89.84
2023-05-06T07:20:36.657Z,92.07
2023-05-06T07:21:36.657Z,91.21
2023-05-06T07:22:36.650Z,90.93
2023-05-06T07:23:36.632Z,86.26
2023-05-06T07:24:36.600Z,90.72
2023-05-06T07:25:36.600Z,87.93
2023-05-06T07:26:36.642Z,82.01
2023-05-06T07:27:36.577Z,72.37
2023-05-06T07:28:36.596Z,74.94
2023-05-06T07:29:36.606Z,69.34
2023-05-06T07:30:36.585Z,73.69
2023-05-06T07:31:36.661Z,61.90
2023-05-06T07:32:36.575Z,55.00
2023-05-06T07:33:36.574Z,60.48
2023-05-06T07:34:36.542Z,47.62
2023-05-06T07:35:36.542Z,42.47
2023-05-06T07:36:38.627Z,28.28
2023-05-06T07:37:36.534Z,16.75
2023-05-06T07:38:36.525Z,11.39
2023-05-06T07:39:36.499Z,8.43
2023-05-06T07:40:36.492Z,10.52
2023-05-06T07:41:36.512Z,19.95
2023-05-06T07:42:36.553Z,42.00
2023-05-06T07:43:36.510Z,57.29
2023-05-06T07:44:36.473Z,67.24
2023-05-06T07:45:36.481Z,69.29
2023-05-06T07:46:36.552Z,74.74
2023-05-06T07:47:36.553Z,74.67
2023-05-06T07:48:36.460Z,82.98
2023-05-06T07:49:36.455Z,82.41
2023-05-06T07:50:36.458Z,84.49
2023-05-06T07:51:36.426Z,93.27
2023-05-06T07:52:36.434Z,104.38
2023-05-06T07:53:36.429Z,97.12
2023-05-06T07:54:36.429Z,99.19
2023-05-06T07:55:36.413Z,109.92
2023-05-06T07:56:36.389Z,112.02
2023-05-06T07:57:36.428Z,116.23
2023-05-06T07:58:36.495Z,119.83
2023-05-06T07:59:36.388Z,116.01
2023-05-06T08:00:36.390Z,121.09
2023-05-06T08:01:36.362Z,119.00
2023-05-06T08:02:36.505Z,116.69
2023-05-06T08:03:36.444Z,107.04
2023-05-06T08:04:36.380Z,102.72
2023-05-06T08:05:36.355Z,115.18
2023-05-06T08:06:36.330Z,112.65
2023-05-06T08:07:36.329Z,116.11
2023-05-06T08:08:36.326Z,122.05
2023-05-06T08:09:36.308Z,120.43
2023-05-06T08:10:36.317Z,111.62
2023-05-06T08:11:36.310Z,120.72
2023-05-06T08:12:36.358Z,129.88
2023-05-06T08:13:36.308Z,130.32
2023-05-06T08:14:36.380Z,129.64
2023-05-06T08:15:36.301Z,128.56
2023-05-06T08:16:36.301Z,131.37
2023-05-06T08:17:36.353Z,132.56
2023-05-06T08:18:36.250Z,130.83
2023-05-06T08:19:36.272Z,136.11
2023-05-06T08:20:36.241Z,142.97
2023-05-06T08:21:36.252Z,141.80
2023-05-06T08:22:36.314Z,139.51
2023-05-06T08:23:36.244Z,143.24
2023-05-06T08:24:36.230Z,145.56
2023-05-06T08:25:36.209Z,145.70
2023-05-06T08:26:36.207Z,144.53
2023-05-06T08:27:36.214Z,147.62
2023-05-06T08:28:36.226Z,155.05
2023-05-06T08:29:36.244Z,154.12
2023-05-06T08:30:36.344Z,154.89
2023-05-06T08:31:36.326Z,154.86
2023-05-06T08:32:36.402Z,152.98
2023-05-06T08:33:36.365Z,147.80
2023-05-06T08:34:36.403Z,151.83
2023-05-06T08:35:36.423Z,149.12
2023-05-06T08:36:36.464Z,146.42
2023-05-06T08:37:36.488Z,146.41
2023-05-06T08:38:36.527Z,145.30
2023-05-06T08:39:36.566Z,139.79
2023-05-06T08:40:36.597Z,143.46
2023-05-06T08:41:36.629Z,144.15
2023-05-06T08:42:36.666Z,143.27
2023-05-06T08:43:36.736Z,146.99
2023-05-06T08:44:36.825Z,149.52
2023-05-06T08:45:36.908Z,147.99
2023-05-06T08:46:37.140Z,149.34
2023-05-06T08:47:37.012Z,153.47
2023-05-06T08:48:37.051Z,148.30
2023-05-06T08:49:37.106Z,153.95
2023-05-06T08:50:37.185Z,146.31
2023-05-06T08:51:37.232Z,150.70
2023-05-06T08:52:37.311Z,146.19
2023-05-06T08:53:37.338Z,145.76
2023-05-06T08:54:37.424Z,145.84
2023-05-06T08:55:37.472Z,151.48
2023-05-06T08:56:37.521Z,156.45
2023-05-06T08:57:37.555Z,152.59
2023-05-06T08:58:37.615Z,154.27
2023-05-06T08:59:37.716Z,156.63
2023-05-06T09:00:37.751Z,158.10
2023-05-06T09:01:37.983Z,157.91
2023-05-06T09:02:39.853Z,161.30
2023-05-06T09:03:38.014Z,161.47
2023-05-06T09:04:37.853Z,162.18
2023-05-06T09:05:37.859Z,164.60
2023-05-06T09:06:37.853Z,168.67
2023-05-06T09:07:37.849Z,174.11
2023-05-06T09:08:37.826Z,170.95
2023-05-06T09:09:37.833Z,169.04
2023-05-06T09:10:37.848Z,172.15
2023-05-06T09:11:37.804Z,172.29
2023-05-06T09:12:37.853Z,175.28
2023-05-06T09:13:37.806Z,175.72
2023-05-06T09:14:37.796Z,180.33
2023-05-06T09:15:37.784Z,180.65
2023-05-06T09:16:37.801Z,179.83
2023-05-06T09:17:37.792Z,183.04
2023-05-06T09:18:37.773Z,188.82
2023-05-06T09:19:37.764Z,177.53
2023-05-06T09:20:37.752Z,179.07
2023-05-06T09:21:37.743Z,185.94
2023-05-06T09:22:37.729Z,185.77
2023-05-06T09:23:37.735Z,186.60
2023-05-06T09:24:37.729Z,181.14
2023-05-06T09:25:37.720Z,179.98
2023-05-06T09:26:37.696Z,185.34
2023-05-06T09:27:37.713Z,189.73
2023-05-06T09:28:37.700Z,188.30
2023-05-06T09:29:37.699Z,186.99
2023-05-06T09:30:37.683Z,188.20
2023-05-06T09:31:37.773Z,180.42
2023-05-06T09:32:40.217Z,183.49
2023-05-06T09:33:37.695Z,189.11
2023-05-06T09:34:37.863Z,185.82
2023-05-06T09:35:37.647Z,186.52
2023-05-06T09:36:37.670Z,187.85
2023-05-06T09:37:37.637Z,182.59
2023-05-06T09:38:37.644Z,186.60
2023-05-06T09:39:37.625Z,178.45
2023-05-06T09:40:37.661Z,173.82
2023-05-06T09:41:37.625Z,174.82
2023-05-06T09:42:37.592Z,159.24
2023-05-06T09:43:37.602Z,166.09
2023-05-06T09:44:37.657Z,156.12
2023-05-06T09:45:37.576Z,161.91
2023-05-06T09:46:37.728Z,157.65
2023-05-06T09:47:37.635Z,146.18
2023-05-06T09:48:37.559Z,147.68
2023-05-06T09:49:37.565Z,145.53
2023-05-06T09:50:37.606Z,144.66
2023-05-06T09:51:37.541Z,144.18
2023-05-06T09:52:37.539Z,143.39
2023-05-06T09:53:37.537Z,141.88
2023-05-06T09:54:37.520Z,142.03
2023-05-06T09:55:37.508Z,146.23
2023-05-06T09:56:37.493Z,146.35
2023-05-06T09:57:37.511Z,153.02
2023-05-06T09:58:37.492Z,145.73
2023-05-06T09:59:37.485Z,153.94
2023-05-06T10:00:37.468Z,160.78
2023-05-06T10:01:37.898Z,147.41
2023-05-06T10:02:37.699Z,142.52
2023-05-06T10:03:37.550Z,147.64
2023-05-06T10:04:37.616Z,145.61
2023-05-06T10:05:37.455Z,142.23
2023-05-06T10:06:37.470Z,138.57
2023-05-06T10:07:37.423Z,135.90
2023-05-06T10:08:37.409Z,137.64
2023-05-06T10:09:37.442Z,140.18
2023-05-06T10:10:37.403Z,131.49
2023-05-06T10:11:37.475Z,122.65
2023-05-06T10:12:37.427Z,117.84
2023-05-06T10:13:37.399Z,108.47
2023-05-06T10:14:37.405Z,108.60
2023-05-06T10:15:37.387Z,113.32
2023-05-06T10:16:38.485Z,114.81
2023-05-06T10:17:37.403Z,112.74
2023-05-06T10:18:37.365Z,101.19
2023-05-06T10:19:37.378Z,103.96
2023-05-06T10:20:37.345Z,94.20
2023-05-06T10:21:37.353Z,89.86
2023-05-06T10:22:37.497Z,96.15
2023-05-06T10:23:37.368Z,98.98
2023-05-06T10:24:37.327Z,97.73
2023-05-06T10:25:37.327Z,104.42
2023-05-06T10:26:37.313Z,92.19
2023-05-06T10:27:37.295Z,105.06
2023-05-06T10:28:37.324Z,109.01
2023-05-06T10:29:37.386Z,109.99
2023-05-06T10:30:37.433Z,114.40
2023-05-06T10:31:37.531Z,119.23
2023-05-06T10:32:37.538Z,117.48
2023-05-06T10:33:37.840Z,121.09
2023-05-06T10:34:37.596Z,110.29
2023-05-06T10:35:37.634Z,102.95
2023-05-06T10:36:37.685Z,110.51
2023-05-06T10:37:37.700Z,120.44
2023-05-06T10:38:37.791Z,126.98
2023-05-06T10:39:38.509Z,119.59
2023-05-06T10:40:37.756Z,115.09
2023-05-06T10:41:37.862Z,116.03
2023-05-06T10:42:37.796Z,118.49
2023-05-06T10:43:37.823Z,126.41
2023-05-06T10:44:37.861Z,135.85
2023-05-06T10:45:37.952Z,130.71
2023-05-06T10:46:37.909Z,133.58
2023-05-06T10:47:37.997Z,135.40
2023-05-06T10:48:37.936Z,134.82
2023-05-06T10:49:37.967Z,132.45
2023-05-06T10:50:38.050Z,133.73
2023-05-06T10:51:38.052Z,132.15
2023-05-06T10:52:38.045Z,139.86
2023-05-06T10:53:38.078Z,139.55
2023-05-06T10:54:38.097Z,137.29
2023-05-06T10:55:38.128Z,139.75
2023-05-06T10:56:38.132Z,140.71
2023-05-06T10:57:38.145Z,125.13
2023-05-06T10:58:38.180Z,131.59
2023-05-06T10:59:38.192Z,134.78
2023-05-06T11:00:38.204Z,137.56
2023-05-06T11:01:38.265Z,139.48
2023-05-06T11:02:38.298Z,146.86
2023-05-06T11:03:38.339Z,140.47
2023-05-06T11:04:38.316Z,139.59
2023-05-06T11:05:38.347Z,140.20
2023-05-06T11:06:38.429Z,142.62
2023-05-06T11:07:38.418Z,142.40
2023-05-06T11:08:38.452Z,141.51
2023-05-06T11:09:38.514Z,138.35
2023-05-06T11:10:38.558Z,131.29
2023-05-06T11:11:38.566Z,134.75
2023-05-06T11:12:38.664Z,136.42
2023-05-06T11:13:38.617Z,138.69
2023-05-06T11:14:38.652Z,125.31
2023-05-06T11:15:38.708Z,122.91
2023-05-06T11:16:38.889Z,131.26
2023-05-06T11:17:38.837Z,106.79
2023-05-06T11:18:38.848Z,113.96
2023-05-06T11:19:38.925Z,120.38
2023-05-06T11:20:38.981Z,108.92
2023-05-06T11:21:39.027Z,104.63
2023-05-06T11:22:39.079Z,118.25
2023-05-06T11:23:39.135Z,101.47
2023-05-06T11:24:39.163Z,91.19
2023-05-06T11:25:39.166Z,103.90
2023-05-06T11:26:39.302Z,110.19
2023-05-06T11:27:39.206Z,107.22
2023-05-06T11:28:39.200Z,115.03
2023-05-06T11:29:39.254Z,115.89
2023-05-06T11:30:39.300Z,110.94
2023-05-06T11:31:39.370Z,108.54
2023-05-06T11:32:39.481Z,78.04
2023-05-06T11:33:39.448Z,82.60
2023-05-06T11:34:39.453Z,74.50
2023-05-06T11:35:39.446Z,75.95
2023-05-06T11:36:39.447Z,84.27
2023-05-06T11:37:39.459Z,80.12
2023-05-06T11:38:39.497Z,99.60
2023-05-06T11:39:41.015Z,67.00
2023-05-06T11:40:39.576Z,68.67
2023-05-06T11:41:39.617Z,78.54
2023-05-06T11:42:39.776Z,86.94
2023-05-06T11:43:39.726Z,85.91
2023-05-06T11:44:39.758Z,94.22
2023-05-06T11:45:39.760Z,95.46
2023-05-06T11:46:39.790Z,85.63
2023-05-06T11:47:39.815Z,85.10
2023-05-06T11:48:39.795Z,88.00
2023-05-06T11:49:39.808Z,88.41
2023-05-06T11:50:39.784Z,79.83
2023-05-06T11:51:39.823Z,72.31
2023-05-06T11:52:39.799Z,72.46
2023-05-06T11:53:39.801Z,70.56
2023-05-06T11:54:39.821Z,68.43
2023-05-06T11:55:39.828Z,65.77
2023-05-06T11:56:39.828Z,67.07
2023-05-06T11:57:39.867Z,73.73
2023-05-06T11:58:39.917Z,61.83
2023-05-06T11:59:39.855Z,66.34
2023-05-06T12:00:39.863Z,67.03
2023-05-06T12:01:39.871Z,59.57
2023-05-06T12:02:40.033Z,59.44
2023-05-06T12:03:40.022Z,52.15
2023-05-06T12:04:40.005Z,53.58
2023-05-06T12:05:39.915Z,52.99
2023-05-06T12:06:39.907Z,45.86
2023-05-06T12:07:39.908Z,45.22
2023-05-06T12:08:39.922Z,45.91
2023-05-06T12:09:39.940Z,44.95
2023-05-06T12:10:39.950Z,51.61
2023-05-06T12:11:39.959Z,45.25
2023-05-06T12:12:40.017Z,41.74
2023-05-06T12:13:39.965Z,41.96
2023-05-06T12:14:40.066Z,33.69
2023-05-06T12:15:39.993Z,34.98
2023-05-06T12:16:40.131Z,29.55
2023-05-06T12:17:39.983Z,39.54
2023-05-06T12:18:39.985Z,32.92
2023-05-06T12:19:39.994Z,25.53
2023-05-06T12:20:39.969Z,32.81
2023-05-06T12:21:39.972Z,33.10
2023-05-06T12:22:39.977Z,25.51
2023-05-06T12:23:40.088Z,35.55
2023-05-06T12:24:39.997Z,37.96
2023-05-06T12:25:39.998Z,32.62
2023-05-06T12:26:40.004Z,41.34
2023-05-06T12:27:40.001Z,53.39
2023-05-06T12:28:40.030Z,49.94
2023-05-06T12:29:40.084Z,47.74
2023-05-06T12:30:40.154Z,49.46
2023-05-06T12:31:40.257Z,47.19